sensor_id;sensor_type;location;lat;lon;timestamp;P1;durP1;ratioP1;P2;durP2;ratioP2
50803;SDS011;37205;51.434;6.756;2023-12-28T00:01:23;4.72;;;2.10;;
50803;SDS011;37205;51.434;6.756;2023-12-28T00:03:49;3.58;;;2.00;;
50803;SDS011;37205;51.434;6.756;2023-12-28T00:06:15;3.92;;;1.92;;
50803;SDS011;37205;51.434;6.756;2023-12-28T00:08:41;3.70;;;1.88;;
50803;SDS011;37205;51.434;6.756;2023-12-28T00:11:07;3.53;;;2.00;;
50803;SDS011;37205;51.434;6.756;2023-12-28T00:13:32;4.03;;;1.98;;
50803;SDS011;37205;51.434;6.756;2023-12-28T00:15:58;3.45;;;1.67;;
50803;SDS011;37205;51.434;6.756;2023-12-28T00:18:24;3.47;;;1.70;;
50803;SDS011;37205;51.434;6.756;2023-12-28T00:20:50;4.82;;;1.95;;
50803;SDS011;37205;51.434;6.756;2023-12-28T00:23:15;4.28;;;2.15;;
50803;SDS011;37205;51.434;6.756;2023-12-28T00:25:41;3.75;;;1.92;;
50803;SDS011;37205;51.434;6.756;2023-12-28T00:28:06;3.53;;;2.17;;
50803;SDS011;37205;51.434;6.756;2023-12-28T00:30:32;4.30;;;2.42;;
50803;SDS011;37205;51.434;6.756;2023-12-28T00:32:58;3.70;;;1.98;;
50803;SDS011;37205;51.434;6.756;2023-12-28T00:35:23;4.35;;;2.05;;
50803;SDS011;37205;51.434;6.756;2023-12-28T00:37:49;4.32;;;2.13;;
50803;SDS011;37205;51.434;6.756;2023-12-28T00:40:15;5.03;;;2.30;;
50803;SDS011;37205;51.434;6.756;2023-12-28T00:42:40;4.97;;;2.45;;
50803;SDS011;37205;51.434;6.756;2023-12-28T00:45:06;3.35;;;2.00;;
50803;SDS011;37205;51.434;6.756;2023-12-28T00:47:33;4.30;;;1.85;;
50803;SDS011;37205;51.434;6.756;2023-12-28T00:49:58;4.00;;;2.30;;
50803;SDS011;37205;51.434;6.756;2023-12-28T00:52:24;3.45;;;2.08;;
50803;SDS011;37205;51.434;6.756;2023-12-28T00:54:49;3.80;;;1.85;;
50803;SDS011;37205;51.434;6.756;2023-12-28T00:57:15;3.75;;;2.15;;
50803;SDS011;37205;51.434;6.756;2023-12-28T00:59:40;3.33;;;1.95;;
50803;SDS011;37205;51.434;6.756;2023-12-28T01:02:07;3.50;;;2.17;;
50803;SDS011;37205;51.434;6.756;2023-12-28T01:04:32;4.22;;;2.28;;
50803;SDS011;37205;51.434;6.756;2023-12-28T01:06:58;4.93;;;2.50;;
50803;SDS011;37205;51.434;6.756;2023-12-28T01:09:26;4.50;;;2.75;;
50803;SDS011;37205;51.434;6.756;2023-12-28T01:11:52;5.22;;;3.00;;
50803;SDS011;37205;51.434;6.756;2023-12-28T01:14:18;5.45;;;2.83;;
50803;SDS011;37205;51.434;6.756;2023-12-28T01:16:43;4.68;;;3.08;;
50803;SDS011;37205;51.434;6.756;2023-12-28T01:19:09;6.45;;;3.10;;
50803;SDS011;37205;51.434;6.756;2023-12-28T01:21:34;4.32;;;2.65;;
50803;SDS011;37205;51.434;6.756;2023-12-28T01:24:00;4.82;;;2.80;;
50803;SDS011;37205;51.434;6.756;2023-12-28T01:26:26;4.97;;;3.20;;
50803;SDS011;37205;51.434;6.756;2023-12-28T01:28:51;7.70;;;4.00;;
50803;SDS011;37205;51.434;6.756;2023-12-28T01:31:17;6.35;;;3.78;;
50803;SDS011;37205;51.434;6.756;2023-12-28T01:33:43;7.40;;;3.72;;
50803;SDS011;37205;51.434;6.756;2023-12-28T01:36:17;5.82;;;3.78;;
50803;SDS011;37205;51.434;6.756;2023-12-28T01:38:44;6.85;;;3.72;;
50803;SDS011;37205;51.434;6.756;2023-12-28T01:41:10;4.60;;;3.20;;
50803;SDS011;37205;51.434;6.756;2023-12-28T01:43:35;5.38;;;3.03;;
50803;SDS011;37205;51.434;6.756;2023-12-28T01:46:01;4.97;;;3.42;;
50803;SDS011;37205;51.434;6.756;2023-12-28T01:48:27;8.07;;;4.45;;
50803;SDS011;37205;51.434;6.756;2023-12-28T01:50:53;7.72;;;4.85;;
50803;SDS011;37205;51.434;6.756;2023-12-28T01:53:19;6.50;;;4.53;;
50803;SDS011;37205;51.434;6.756;2023-12-28T01:55:45;6.72;;;4.00;;
50803;SDS011;37205;51.434;6.756;2023-12-28T01:58:10;6.75;;;4.10;;
50803;SDS011;37205;51.434;6.756;2023-12-28T02:00:37;8.80;;;3.75;;
50803;SDS011;37205;51.434;6.756;2023-12-28T02:03:06;5.10;;;2.90;;
50803;SDS011;37205;51.434;6.756;2023-12-28T02:05:33;5.95;;;3.30;;
50803;SDS011;37205;51.434;6.756;2023-12-28T02:08:00;6.10;;;3.22;;
50803;SDS011;37205;51.434;6.756;2023-12-28T02:10:25;6.05;;;3.13;;
50803;SDS011;37205;51.434;6.756;2023-12-28T02:12:51;6.70;;;3.50;;
50803;SDS011;37205;51.434;6.756;2023-12-28T02:15:18;7.65;;;3.33;;
50803;SDS011;37205;51.434;6.756;2023-12-28T02:17:47;8.80;;;3.45;;
50803;SDS011;37205;51.434;6.756;2023-12-28T02:20:23;6.95;;;3.30;;
50803;SDS011;37205;51.434;6.756;2023-12-28T02:22:50;4.57;;;2.78;;
50803;SDS011;37205;51.434;6.756;2023-12-28T02:25:17;7.55;;;3.20;;
50803;SDS011;37205;51.434;6.756;2023-12-28T02:27:43;5.32;;;3.05;;
50803;SDS011;37205;51.434;6.756;2023-12-28T02:30:11;5.32;;;3.30;;
50803;SDS011;37205;51.434;6.756;2023-12-28T02:35:19;6.40;;;3.15;;
50803;SDS011;37205;51.434;6.756;2023-12-28T02:37:51;6.95;;;3.80;;
50803;SDS011;37205;51.434;6.756;2023-12-28T02:40:18;6.90;;;3.85;;
50803;SDS011;37205;51.434;6.756;2023-12-28T02:42:44;7.43;;;3.90;;
50803;SDS011;37205;51.434;6.756;2023-12-28T02:45:10;12.00;;;4.50;;
50803;SDS011;37205;51.434;6.756;2023-12-28T02:47:36;7.20;;;4.60;;
50803;SDS011;37205;51.434;6.756;2023-12-28T02:50:01;7.35;;;4.63;;
50803;SDS011;37205;51.434;6.756;2023-12-28T02:52:27;5.07;;;3.60;;
50803;SDS011;37205;51.434;6.756;2023-12-28T02:54:53;6.93;;;3.38;;
50803;SDS011;37205;51.434;6.756;2023-12-28T02:57:18;5.00;;;2.90;;
50803;SDS011;37205;51.434;6.756;2023-12-28T02:59:44;7.82;;;3.30;;
50803;SDS011;37205;51.434;6.756;2023-12-28T03:02:10;4.70;;;3.10;;
50803;SDS011;37205;51.434;6.756;2023-12-28T03:04:36;7.53;;;3.00;;
50803;SDS011;37205;51.434;6.756;2023-12-28T03:07:01;5.43;;;3.15;;
50803;SDS011;37205;51.434;6.756;2023-12-28T03:09:27;7.45;;;3.75;;
50803;SDS011;37205;51.434;6.756;2023-12-28T03:11:52;7.05;;;3.22;;
50803;SDS011;37205;51.434;6.756;2023-12-28T03:14:18;5.97;;;3.70;;
50803;SDS011;37205;51.434;6.756;2023-12-28T03:16:43;8.18;;;3.88;;
50803;SDS011;37205;51.434;6.756;2023-12-28T03:19:09;6.68;;;3.95;;
50803;SDS011;37205;51.434;6.756;2023-12-28T03:21:38;8.15;;;3.65;;
50803;SDS011;37205;51.434;6.756;2023-12-28T03:24:04;4.72;;;3.20;;
50803;SDS011;37205;51.434;6.756;2023-12-28T03:26:30;5.03;;;3.42;;
50803;SDS011;37205;51.434;6.756;2023-12-28T03:28:56;6.22;;;3.45;;
50803;SDS011;37205;51.434;6.756;2023-12-28T03:31:22;6.20;;;3.40;;
50803;SDS011;37205;51.434;6.756;2023-12-28T03:33:48;7.53;;;3.65;;
50803;SDS011;37205;51.434;6.756;2023-12-28T03:36:19;6.28;;;3.28;;
50803;SDS011;37205;51.434;6.756;2023-12-28T03:38:45;6.27;;;4.13;;
50803;SDS011;37205;51.434;6.756;2023-12-28T03:41:20;8.55;;;4.05;;
50803;SDS011;37205;51.434;6.756;2023-12-28T03:43:46;7.05;;;4.43;;
50803;SDS011;37205;51.434;6.756;2023-12-28T03:46:12;8.00;;;4.78;;
50803;SDS011;37205;51.434;6.756;2023-12-28T03:48:38;7.55;;;4.40;;
50803;SDS011;37205;51.434;6.756;2023-12-28T03:51:04;6.70;;;3.75;;
50803;SDS011;37205;51.434;6.756;2023-12-28T03:53:30;7.72;;;3.85;;
50803;SDS011;37205;51.434;6.756;2023-12-28T03:55:59;7.80;;;3.83;;
50803;SDS011;37205;51.434;6.756;2023-12-28T03:58:24;6.75;;;4.18;;
50803;SDS011;37205;51.434;6.756;2023-12-28T04:00:50;6.53;;;3.55;;
50803;SDS011;37205;51.434;6.756;2023-12-28T04:03:16;6.30;;;3.55;;
50803;SDS011;37205;51.434;6.756;2023-12-28T04:05:42;5.22;;;3.15;;
50803;SDS011;37205;51.434;6.756;2023-12-28T04:08:08;5.00;;;3.03;;
50803;SDS011;37205;51.434;6.756;2023-12-28T04:10:34;5.28;;;2.90;;
50803;SDS011;37205;51.434;6.756;2023-12-28T04:13:02;4.90;;;2.80;;
50803;SDS011;37205;51.434;6.756;2023-12-28T04:15:28;7.97;;;3.45;;
50803;SDS011;37205;51.434;6.756;2023-12-28T04:17:54;4.45;;;2.65;;
50803;SDS011;37205;51.434;6.756;2023-12-28T04:20:20;6.43;;;2.67;;
50803;SDS011;37205;51.434;6.756;2023-12-28T04:22:45;5.93;;;2.90;;
50803;SDS011;37205;51.434;6.756;2023-12-28T04:25:11;5.57;;;2.47;;
50803;SDS011;37205;51.434;6.756;2023-12-28T04:27:37;5.45;;;3.05;;
50803;SDS011;37205;51.434;6.756;2023-12-28T04:30:03;6.80;;;3.53;;
50803;SDS011;37205;51.434;6.756;2023-12-28T04:32:32;6.20;;;3.15;;
50803;SDS011;37205;51.434;6.756;2023-12-28T04:34:58;5.57;;;2.90;;
50803;SDS011;37205;51.434;6.756;2023-12-28T04:37:24;5.75;;;3.25;;
50803;SDS011;37205;51.434;6.756;2023-12-28T04:39:51;6.35;;;3.50;;
50803;SDS011;37205;51.434;6.756;2023-12-28T04:42:18;7.15;;;3.50;;
50803;SDS011;37205;51.434;6.756;2023-12-28T04:44:43;6.43;;;4.10;;
50803;SDS011;37205;51.434;6.756;2023-12-28T04:47:09;8.35;;;4.03;;
50803;SDS011;37205;51.434;6.756;2023-12-28T04:49:35;6.45;;;3.90;;
50803;SDS011;37205;51.434;6.756;2023-12-28T04:52:00;8.85;;;3.90;;
50803;SDS011;37205;51.434;6.756;2023-12-28T04:54:26;6.50;;;3.80;;
50803;SDS011;37205;51.434;6.756;2023-12-28T04:56:52;7.00;;;3.67;;
50803;SDS011;37205;51.434;6.756;2023-12-28T04:59:18;7.57;;;3.28;;
50803;SDS011;37205;51.434;6.756;2023-12-28T05:01:43;6.65;;;3.70;;
50803;SDS011;37205;51.434;6.756;2023-12-28T05:04:09;5.63;;;3.50;;
50803;SDS011;37205;51.434;6.756;2023-12-28T05:06:35;8.68;;;3.83;;
50803;SDS011;37205;51.434;6.756;2023-12-28T05:09:01;5.53;;;3.47;;
50803;SDS011;37205;51.434;6.756;2023-12-28T05:11:27;6.20;;;3.70;;
50803;SDS011;37205;51.434;6.756;2023-12-28T05:13:52;7.68;;;4.30;;
50803;SDS011;37205;51.434;6.756;2023-12-28T05:16:18;6.47;;;3.17;;
50803;SDS011;37205;51.434;6.756;2023-12-28T05:18:45;5.95;;;4.00;;
50803;SDS011;37205;51.434;6.756;2023-12-28T05:21:11;9.77;;;3.97;;
50803;SDS011;37205;51.434;6.756;2023-12-28T05:23:37;7.95;;;3.95;;
50803;SDS011;37205;51.434;6.756;2023-12-28T05:26:03;7.75;;;4.55;;
50803;SDS011;37205;51.434;6.756;2023-12-28T05:28:28;7.80;;;4.22;;
50803;SDS011;37205;51.434;6.756;2023-12-28T05:30:54;9.18;;;4.40;;
50803;SDS011;37205;51.434;6.756;2023-12-28T05:33:19;9.20;;;4.47;;
50803;SDS011;37205;51.434;6.756;2023-12-28T05:35:45;9.00;;;4.53;;
50803;SDS011;37205;51.434;6.756;2023-12-28T05:38:10;11.98;;;4.97;;
50803;SDS011;37205;51.434;6.756;2023-12-28T05:40:36;9.50;;;4.75;;
50803;SDS011;37205;51.434;6.756;2023-12-28T05:43:01;8.13;;;3.95;;
50803;SDS011;37205;51.434;6.756;2023-12-28T05:45:27;7.03;;;3.67;;
50803;SDS011;37205;51.434;6.756;2023-12-28T05:47:53;6.90;;;3.35;;
50803;SDS011;37205;51.434;6.756;2023-12-28T05:50:18;7.75;;;4.10;;
50803;SDS011;37205;51.434;6.756;2023-12-28T05:52:44;6.28;;;3.95;;
50803;SDS011;37205;51.434;6.756;2023-12-28T05:55:09;6.65;;;4.22;;
50803;SDS011;37205;51.434;6.756;2023-12-28T05:57:35;6.90;;;4.05;;
50803;SDS011;37205;51.434;6.756;2023-12-28T06:00:00;9.55;;;4.05;;
50803;SDS011;37205;51.434;6.756;2023-12-28T06:02:26;6.80;;;3.80;;
50803;SDS011;37205;51.434;6.756;2023-12-28T06:04:51;8.35;;;3.83;;
50803;SDS011;37205;51.434;6.756;2023-12-28T06:07:17;8.77;;;3.97;;
50803;SDS011;37205;51.434;6.756;2023-12-28T06:09:42;10.80;;;4.38;;
50803;SDS011;37205;51.434;6.756;2023-12-28T06:12:08;10.13;;;4.30;;
50803;SDS011;37205;51.434;6.756;2023-12-28T06:14:33;10.15;;;5.55;;
50803;SDS011;37205;51.434;6.756;2023-12-28T06:16:59;10.50;;;5.55;;
50803;SDS011;37205;51.434;6.756;2023-12-28T06:19:24;11.15;;;5.50;;
50803;SDS011;37205;51.434;6.756;2023-12-28T06:21:50;9.82;;;4.90;;
50803;SDS011;37205;51.434;6.756;2023-12-28T06:24:16;7.15;;;3.72;;
50803;SDS011;37205;51.434;6.756;2023-12-28T06:26:42;6.45;;;3.45;;
50803;SDS011;37205;51.434;6.756;2023-12-28T06:29:08;8.38;;;4.20;;
50803;SDS011;37205;51.434;6.756;2023-12-28T06:31:34;7.60;;;3.40;;
50803;SDS011;37205;51.434;6.756;2023-12-28T06:34:04;7.13;;;3.15;;
50803;SDS011;37205;51.434;6.756;2023-12-28T06:36:30;9.45;;;3.45;;
50803;SDS011;37205;51.434;6.756;2023-12-28T06:38:56;7.22;;;3.45;;
50803;SDS011;37205;51.434;6.756;2023-12-28T06:41:22;7.72;;;3.40;;
50803;SDS011;37205;51.434;6.756;2023-12-28T06:43:48;6.38;;;3.00;;
50803;SDS011;37205;51.434;6.756;2023-12-28T06:46:14;9.35;;;3.42;;
50803;SDS011;37205;51.434;6.756;2023-12-28T06:48:39;7.55;;;2.95;;
50803;SDS011;37205;51.434;6.756;2023-12-28T06:51:05;8.82;;;3.90;;
50803;SDS011;37205;51.434;6.756;2023-12-28T06:53:31;8.82;;;3.55;;
50803;SDS011;37205;51.434;6.756;2023-12-28T06:55:57;7.15;;;3.53;;
50803;SDS011;37205;51.434;6.756;2023-12-28T06:58:23;8.60;;;3.70;;
50803;SDS011;37205;51.434;6.756;2023-12-28T07:00:48;8.30;;;3.70;;
50803;SDS011;37205;51.434;6.756;2023-12-28T07:03:14;11.02;;;6.68;;
50803;SDS011;37205;51.434;6.756;2023-12-28T07:05:40;10.18;;;5.43;;
50803;SDS011;37205;51.434;6.756;2023-12-28T07:08:05;8.00;;;4.03;;
50803;SDS011;37205;51.434;6.756;2023-12-28T07:10:31;10.88;;;4.10;;
50803;SDS011;37205;51.434;6.756;2023-12-28T07:12:56;10.38;;;4.13;;
50803;SDS011;37205;51.434;6.756;2023-12-28T07:15:22;11.40;;;4.03;;
50803;SDS011;37205;51.434;6.756;2023-12-28T07:17:47;8.57;;;3.55;;
50803;SDS011;37205;51.434;6.756;2023-12-28T07:20:13;7.80;;;3.08;;
50803;SDS011;37205;51.434;6.756;2023-12-28T07:22:39;7.88;;;3.10;;
50803;SDS011;37205;51.434;6.756;2023-12-28T07:25:05;9.52;;;2.97;;
50803;SDS011;37205;51.434;6.756;2023-12-28T07:27:31;6.75;;;2.85;;
50803;SDS011;37205;51.434;6.756;2023-12-28T07:30:00;9.32;;;2.97;;
50803;SDS011;37205;51.434;6.756;2023-12-28T07:32:26;11.07;;;3.30;;
50803;SDS011;37205;51.434;6.756;2023-12-28T07:34:53;9.27;;;3.00;;
50803;SDS011;37205;51.434;6.756;2023-12-28T07:37:19;8.10;;;2.63;;
50803;SDS011;37205;51.434;6.756;2023-12-28T07:39:44;8.52;;;3.05;;
50803;SDS011;37205;51.434;6.756;2023-12-28T07:42:10;9.02;;;3.15;;
50803;SDS011;37205;51.434;6.756;2023-12-28T07:44:35;6.82;;;2.90;;
50803;SDS011;37205;51.434;6.756;2023-12-28T07:47:01;7.40;;;3.05;;
50803;SDS011;37205;51.434;6.756;2023-12-28T07:49:27;12.05;;;2.72;;
50803;SDS011;37205;51.434;6.756;2023-12-28T07:51:53;8.18;;;2.40;;
50803;SDS011;37205;51.434;6.756;2023-12-28T07:54:19;10.25;;;3.03;;
50803;SDS011;37205;51.434;6.756;2023-12-28T07:56:44;8.10;;;2.28;;
50803;SDS011;37205;51.434;6.756;2023-12-28T07:59:10;5.18;;;1.83;;
50803;SDS011;37205;51.434;6.756;2023-12-28T08:01:36;7.75;;;2.72;;
50803;SDS011;37205;51.434;6.756;2023-12-28T08:04:01;9.10;;;2.20;;
50803;SDS011;37205;51.434;6.756;2023-12-28T08:06:28;8.93;;;2.63;;
50803;SDS011;37205;51.434;6.756;2023-12-28T08:08:58;7.65;;;2.03;;
50803;SDS011;37205;51.434;6.756;2023-12-28T08:11:30;9.98;;;2.10;;
50803;SDS011;37205;51.434;6.756;2023-12-28T08:13:55;8.30;;;2.28;;
50803;SDS011;37205;51.434;6.756;2023-12-28T08:16:21;8.45;;;2.28;;
50803;SDS011;37205;51.434;6.756;2023-12-28T08:18:46;8.00;;;2.53;;
50803;SDS011;37205;51.434;6.756;2023-12-28T08:21:12;7.47;;;2.50;;
50803;SDS011;37205;51.434;6.756;2023-12-28T08:23:38;7.68;;;2.40;;
50803;SDS011;37205;51.434;6.756;2023-12-28T08:26:03;10.18;;;2.55;;
50803;SDS011;37205;51.434;6.756;2023-12-28T08:28:29;7.18;;;2.17;;
50803;SDS011;37205;51.434;6.756;2023-12-28T08:30:56;10.02;;;2.60;;
50803;SDS011;37205;51.434;6.756;2023-12-28T08:33:21;8.65;;;2.75;;
50803;SDS011;37205;51.434;6.756;2023-12-28T08:35:47;6.22;;;2.35;;
50803;SDS011;37205;51.434;6.756;2023-12-28T08:38:13;10.27;;;2.90;;
50803;SDS011;37205;51.434;6.756;2023-12-28T08:40:38;6.97;;;2.40;;
50803;SDS011;37205;51.434;6.756;2023-12-28T08:43:04;7.93;;;2.30;;
50803;SDS011;37205;51.434;6.756;2023-12-28T08:45:29;10.88;;;2.53;;
50803;SDS011;37205;51.434;6.756;2023-12-28T08:47:55;8.68;;;2.63;;
50803;SDS011;37205;51.434;6.756;2023-12-28T08:50:21;11.65;;;2.60;;
50803;SDS011;37205;51.434;6.756;2023-12-28T08:52:47;9.10;;;2.20;;
50803;SDS011;37205;51.434;6.756;2023-12-28T08:55:13;9.63;;;2.47;;
50803;SDS011;37205;51.434;6.756;2023-12-28T08:57:39;7.75;;;2.30;;
50803;SDS011;37205;51.434;6.756;2023-12-28T09:00:05;11.30;;;2.63;;
50803;SDS011;37205;51.434;6.756;2023-12-28T09:02:31;8.35;;;2.42;;
50803;SDS011;37205;51.434;6.756;2023-12-28T09:05:00;9.43;;;3.20;;
50803;SDS011;37205;51.434;6.756;2023-12-28T09:07:26;7.78;;;2.38;;
50803;SDS011;37205;51.434;6.756;2023-12-28T09:09:51;9.90;;;2.67;;
50803;SDS011;37205;51.434;6.756;2023-12-28T09:12:17;11.63;;;2.38;;
50803;SDS011;37205;51.434;6.756;2023-12-28T09:14:42;12.85;;;2.13;;
50803;SDS011;37205;51.434;6.756;2023-12-28T09:17:08;12.75;;;2.70;;
50803;SDS011;37205;51.434;6.756;2023-12-28T09:19:33;8.43;;;2.58;;
50803;SDS011;37205;51.434;6.756;2023-12-28T09:21:59;8.70;;;2.25;;
50803;SDS011;37205;51.434;6.756;2023-12-28T09:24:24;12.93;;;2.80;;
50803;SDS011;37205;51.434;6.756;2023-12-28T09:26:50;11.02;;;2.58;;
50803;SDS011;37205;51.434;6.756;2023-12-28T09:29:15;7.32;;;2.45;;
50803;SDS011;37205;51.434;6.756;2023-12-28T09:31:41;13.68;;;2.75;;
50803;SDS011;37205;51.434;6.756;2023-12-28T09:34:06;9.13;;;2.58;;
50803;SDS011;37205;51.434;6.756;2023-12-28T09:36:32;12.70;;;2.65;;
50803;SDS011;37205;51.434;6.756;2023-12-28T09:38:57;13.55;;;2.63;;
50803;SDS011;37205;51.434;6.756;2023-12-28T09:41:25;10.65;;;3.00;;
50803;SDS011;37205;51.434;6.756;2023-12-28T09:43:58;9.20;;;2.63;;
50803;SDS011;37205;51.434;6.756;2023-12-28T09:46:32;10.25;;;2.30;;
50803;SDS011;37205;51.434;6.756;2023-12-28T09:48:58;9.30;;;2.53;;
50803;SDS011;37205;51.434;6.756;2023-12-28T09:51:24;10.65;;;2.53;;
50803;SDS011;37205;51.434;6.756;2023-12-28T09:53:52;9.13;;;2.38;;
50803;SDS011;37205;51.434;6.756;2023-12-28T09:56:18;12.23;;;2.97;;
50803;SDS011;37205;51.434;6.756;2023-12-28T09:58:44;11.65;;;2.92;;
50803;SDS011;37205;51.434;6.756;2023-12-28T10:01:11;11.48;;;3.47;;
50803;SDS011;37205;51.434;6.756;2023-12-28T10:03:39;9.40;;;2.47;;
50803;SDS011;37205;51.434;6.756;2023-12-28T10:06:05;8.93;;;2.60;;
50803;SDS011;37205;51.434;6.756;2023-12-28T10:08:30;9.68;;;2.70;;
50803;SDS011;37205;51.434;6.756;2023-12-28T10:10:56;8.82;;;2.83;;
50803;SDS011;37205;51.434;6.756;2023-12-28T10:13:24;9.88;;;2.38;;
50803;SDS011;37205;51.434;6.756;2023-12-28T10:15:50;9.52;;;2.40;;
50803;SDS011;37205;51.434;6.756;2023-12-28T10:18:18;12.77;;;2.42;;
50803;SDS011;37205;51.434;6.756;2023-12-28T10:20:50;6.57;;;2.10;;
50803;SDS011;37205;51.434;6.756;2023-12-28T10:23:17;11.05;;;2.92;;
50803;SDS011;37205;51.434;6.756;2023-12-28T10:25:46;10.00;;;2.90;;
50803;SDS011;37205;51.434;6.756;2023-12-28T10:28:13;7.65;;;2.00;;
50803;SDS011;37205;51.434;6.756;2023-12-28T10:30:39;14.13;;;3.10;;
50803;SDS011;37205;51.434;6.756;2023-12-28T10:33:07;8.00;;;2.70;;
50803;SDS011;37205;51.434;6.756;2023-12-28T10:35:33;10.43;;;2.70;;
50803;SDS011;37205;51.434;6.756;2023-12-28T10:37:59;10.35;;;2.42;;
50803;SDS011;37205;51.434;6.756;2023-12-28T10:40:27;11.95;;;2.38;;
50803;SDS011;37205;51.434;6.756;2023-12-28T10:45:28;13.60;;;3.10;;
50803;SDS011;37205;51.434;6.756;2023-12-28T10:48:04;10.20;;;2.13;;
50803;SDS011;37205;51.434;6.756;2023-12-28T10:50:43;7.30;;;2.42;;
50803;SDS011;37205;51.434;6.756;2023-12-28T10:53:21;8.85;;;2.60;;
50803;SDS011;37205;51.434;6.756;2023-12-28T10:56:12;7.88;;;2.30;;
50803;SDS011;37205;51.434;6.756;2023-12-28T11:01:21;8.65;;;2.45;;
50803;SDS011;37205;51.434;6.756;2023-12-28T11:03:58;8.18;;;2.40;;
50803;SDS011;37205;51.434;6.756;2023-12-28T11:06:33;9.50;;;2.55;;
50803;SDS011;37205;51.434;6.756;2023-12-28T11:09:00;10.90;;;2.55;;
50803;SDS011;37205;51.434;6.756;2023-12-28T11:11:26;7.85;;;2.17;;
50803;SDS011;37205;51.434;6.756;2023-12-28T11:13:53;10.82;;;3.20;;
50803;SDS011;37205;51.434;6.756;2023-12-28T11:16:21;8.55;;;2.45;;
50803;SDS011;37205;51.434;6.756;2023-12-28T11:18:47;9.68;;;2.28;;
50803;SDS011;37205;51.434;6.756;2023-12-28T11:21:14;7.78;;;2.10;;
50803;SDS011;37205;51.434;6.756;2023-12-28T11:23:41;13.45;;;2.47;;
50803;SDS011;37205;51.434;6.756;2023-12-28T11:26:20;8.63;;;2.60;;
50803;SDS011;37205;51.434;6.756;2023-12-28T11:28:46;7.22;;;2.13;;
50803;SDS011;37205;51.434;6.756;2023-12-28T11:31:15;10.27;;;2.15;;
50803;SDS011;37205;51.434;6.756;2023-12-28T11:33:50;10.43;;;2.50;;
50803;SDS011;37205;51.434;6.756;2023-12-28T11:36:36;10.27;;;2.38;;
50803;SDS011;37205;51.434;6.756;2023-12-28T11:39:08;10.00;;;2.17;;
50803;SDS011;37205;51.434;6.756;2023-12-28T11:41:37;9.55;;;2.00;;
50803;SDS011;37205;51.434;6.756;2023-12-28T11:44:03;9.63;;;2.28;;
50803;SDS011;37205;51.434;6.756;2023-12-28T11:46:32;8.63;;;2.30;;
50803;SDS011;37205;51.434;6.756;2023-12-28T11:49:07;9.63;;;2.63;;
50803;SDS011;37205;51.434;6.756;2023-12-28T11:51:37;9.50;;;2.30;;
50803;SDS011;37205;51.434;6.756;2023-12-28T11:54:04;12.07;;;3.30;;
50803;SDS011;37205;51.434;6.756;2023-12-28T11:56:31;11.73;;;2.80;;
50803;SDS011;37205;51.434;6.756;2023-12-28T11:58:58;10.10;;;2.20;;
50803;SDS011;37205;51.434;6.756;2023-12-28T12:01:24;9.80;;;2.10;;
50803;SDS011;37205;51.434;6.756;2023-12-28T12:03:50;8.90;;;2.35;;
50803;SDS011;37205;51.434;6.756;2023-12-28T12:06:15;8.18;;;2.55;;
50803;SDS011;37205;51.434;6.756;2023-12-28T12:08:44;8.85;;;2.80;;
50803;SDS011;37205;51.434;6.756;2023-12-28T12:11:10;7.75;;;2.08;;
50803;SDS011;37205;51.434;6.756;2023-12-28T12:13:36;8.30;;;2.22;;
50803;SDS011;37205;51.434;6.756;2023-12-28T12:16:02;10.02;;;2.30;;
50803;SDS011;37205;51.434;6.756;2023-12-28T12:18:30;9.20;;;2.55;;
50803;SDS011;37205;51.434;6.756;2023-12-28T12:20:57;10.27;;;2.63;;
50803;SDS011;37205;51.434;6.756;2023-12-28T12:23:23;9.55;;;2.67;;
50803;SDS011;37205;51.434;6.756;2023-12-28T12:25:48;9.30;;;2.10;;
50803;SDS011;37205;51.434;6.756;2023-12-28T12:28:14;10.48;;;2.47;;
50803;SDS011;37205;51.434;6.756;2023-12-28T12:30:40;12.60;;;3.15;;
50803;SDS011;37205;51.434;6.756;2023-12-28T12:33:05;9.80;;;2.35;;
50803;SDS011;37205;51.434;6.756;2023-12-28T12:35:31;10.50;;;1.90;;
50803;SDS011;37205;51.434;6.756;2023-12-28T12:37:56;11.48;;;2.33;;
50803;SDS011;37205;51.434;6.756;2023-12-28T12:40:22;12.30;;;2.80;;
50803;SDS011;37205;51.434;6.756;2023-12-28T12:42:54;10.43;;;2.22;;
50803;SDS011;37205;51.434;6.756;2023-12-28T12:45:20;10.18;;;2.60;;
50803;SDS011;37205;51.434;6.756;2023-12-28T12:47:49;10.40;;;2.33;;
50803;SDS011;37205;51.434;6.756;2023-12-28T12:50:16;8.68;;;2.50;;
50803;SDS011;37205;51.434;6.756;2023-12-28T12:52:42;12.20;;;2.50;;
50803;SDS011;37205;51.434;6.756;2023-12-28T12:55:10;10.13;;;2.65;;
50803;SDS011;37205;51.434;6.756;2023-12-28T12:57:39;11.35;;;2.85;;
50803;SDS011;37205;51.434;6.756;2023-12-28T13:00:05;11.07;;;2.25;;
50803;SDS011;37205;51.434;6.756;2023-12-28T13:02:34;7.43;;;2.22;;
50803;SDS011;37205;51.434;6.756;2023-12-28T13:05:01;11.15;;;2.38;;
50803;SDS011;37205;51.434;6.756;2023-12-28T13:07:27;10.50;;;2.83;;
50803;SDS011;37205;51.434;6.756;2023-12-28T13:09:53;10.82;;;2.28;;
50803;SDS011;37205;51.434;6.756;2023-12-28T13:12:18;11.23;;;2.67;;
50803;SDS011;37205;51.434;6.756;2023-12-28T13:14:44;11.07;;;2.20;;
50803;SDS011;37205;51.434;6.756;2023-12-28T13:17:10;12.73;;;3.47;;
50803;SDS011;37205;51.434;6.756;2023-12-28T13:19:36;10.27;;;2.05;;
50803;SDS011;37205;51.434;6.756;2023-12-28T13:22:01;5.82;;;2.00;;
50803;SDS011;37205;51.434;6.756;2023-12-28T13:24:28;11.00;;;2.42;;
50803;SDS011;37205;51.434;6.756;2023-12-28T13:26:54;7.85;;;2.00;;
50803;SDS011;37205;51.434;6.756;2023-12-28T13:29:19;12.38;;;2.45;;
50803;SDS011;37205;51.434;6.756;2023-12-28T13:31:45;7.93;;;2.25;;
50803;SDS011;37205;51.434;6.756;2023-12-28T13:34:15;9.15;;;2.67;;
50803;SDS011;37205;51.434;6.756;2023-12-28T13:36:41;8.98;;;2.15;;
50803;SDS011;37205;51.434;6.756;2023-12-28T13:39:06;10.50;;;2.25;;
50803;SDS011;37205;51.434;6.756;2023-12-28T13:41:36;8.27;;;2.55;;
50803;SDS011;37205;51.434;6.756;2023-12-28T13:44:02;9.57;;;3.10;;
50803;SDS011;37205;51.434;6.756;2023-12-28T13:46:29;8.60;;;2.28;;
50803;SDS011;37205;51.434;6.756;2023-12-28T13:48:55;8.30;;;2.75;;
50803;SDS011;37205;51.434;6.756;2023-12-28T13:51:21;12.68;;;2.67;;
50803;SDS011;37205;51.434;6.756;2023-12-28T13:53:47;8.10;;;1.88;;
50803;SDS011;37205;51.434;6.756;2023-12-28T13:56:13;7.82;;;2.58;;
50803;SDS011;37205;51.434;6.756;2023-12-28T13:58:38;10.45;;;2.17;;
50803;SDS011;37205;51.434;6.756;2023-12-28T14:01:04;9.75;;;2.20;;
50803;SDS011;37205;51.434;6.756;2023-12-28T14:03:29;9.10;;;2.75;;
50803;SDS011;37205;51.434;6.756;2023-12-28T14:05:55;10.98;;;2.47;;
50803;SDS011;37205;51.434;6.756;2023-12-28T14:08:21;8.70;;;2.22;;
50803;SDS011;37205;51.434;6.756;2023-12-28T14:10:46;7.78;;;2.30;;
50803;SDS011;37205;51.434;6.756;2023-12-28T14:13:12;11.98;;;2.50;;
50803;SDS011;37205;51.434;6.756;2023-12-28T14:15:37;11.98;;;2.67;;
50803;SDS011;37205;51.434;6.756;2023-12-28T14:18:03;13.05;;;2.80;;
50803;SDS011;37205;51.434;6.756;2023-12-28T14:20:31;11.52;;;2.22;;
50803;SDS011;37205;51.434;6.756;2023-12-28T14:22:57;9.38;;;2.38;;
50803;SDS011;37205;51.434;6.756;2023-12-28T14:25:23;10.15;;;2.53;;
50803;SDS011;37205;51.434;6.756;2023-12-28T14:27:49;11.23;;;2.40;;
50803;SDS011;37205;51.434;6.756;2023-12-28T14:30:15;9.48;;;2.13;;
50803;SDS011;37205;51.434;6.756;2023-12-28T14:32:41;9.90;;;2.25;;
50803;SDS011;37205;51.434;6.756;2023-12-28T14:35:07;7.90;;;2.10;;
50803;SDS011;37205;51.434;6.756;2023-12-28T14:37:33;9.65;;;2.75;;
50803;SDS011;37205;51.434;6.756;2023-12-28T14:39:58;8.43;;;2.45;;
50803;SDS011;37205;51.434;6.756;2023-12-28T14:42:24;10.75;;;2.65;;
50803;SDS011;37205;51.434;6.756;2023-12-28T14:44:50;9.77;;;2.60;;
50803;SDS011;37205;51.434;6.756;2023-12-28T14:47:16;7.25;;;1.98;;
50803;SDS011;37205;51.434;6.756;2023-12-28T14:49:42;9.23;;;2.20;;